Time;durP1;ratioP1;P1;durP2;ratioP2;P2;SDS_P1;SDS_P2;PMS_P1;PMS_P2;Temp;Humidity;BMP_temperature;BMP_pressure;BME280_temperature;BME280_humidity;BME280_pressure;Samples;Min_cycle;Max_cycle;Signal;HPM_P1;HPM_P2
2022/02/09 00:02:48;;;;;;;1.38;1.25;;;8.10;77.80;;;7.38;63.05;95939.09;6130804;23;20173;-84
2022/02/09 00:08:06;;;;;;;1.90;1.50;;;8.20;77.90;;;7.28;63.24;95949.59;6130132;23;20185;-86
2022/02/09 00:10:32;;;;;;;2.17;1.40;;;8.20;77.90;;;7.28;63.45;95960.03;6111033;23;20193;-85
2022/02/09 00:18:35;;;;;;;1.65;1.30;;;8.10;78.00;;;7.29;63.41;95960.88;6130442;23;20174;-84
2022/02/09 00:30:14;;;;;;;2.40;1.50;;;8.00;78.00;;;7.29;63.19;95977.34;6081370;23;20221;-86
2022/02/09 01:39:01;;;;;;;2.97;1.90;;;7.90;78.10;;;7.13;63.73;95982.34;6154953;23;20204;-84
2022/02/09 01:57:48;;;;;;;2.05;1.60;;;7.80;78.00;;;7.03;63.41;95962.34;6109308;23;20216;-83
2022/02/09 02:00:15;;;;;;;1.60;1.50;;;7.80;78.00;;;7.04;63.46;95963.16;6105881;23;20252;-85
2022/02/09 02:02:43;;;;;;;1.75;1.60;;;7.80;78.00;;;7.00;63.68;95962.63;6129224;23;20200;-85
2022/02/09 02:05:10;;;;;;;1.52;1.42;;;7.80;78.20;;;6.97;63.74;95946.44;6105470;23;20244;-85
2022/02/09 02:07:54;;;;;;;2.17;1.50;;;7.80;78.10;;;6.99;63.65;95963.59;6105089;23;20209;-86
2022/02/09 02:10:39;;;;;;;2.47;1.75;;;7.80;78.20;;;6.98;63.97;95958.50;6129469;23;20197;-84
2022/02/09 02:13:18;;;;;;;1.52;1.42;;;7.80;78.20;;;7.01;63.97;95966.88;6129601;23;20412;-85
2022/02/09 02:18:33;;;;;;;1.85;1.70;;;7.80;78.40;;;6.99;64.16;95966.19;6129749;23;20645;-84
2022/02/09 02:56:50;;;;;;;1.80;1.50;;;7.80;78.50;;;6.89;63.74;95942.75;6131394;23;20232;-84
2022/02/09 03:12:57;;;;;;;2.72;1.63;;;7.50;78.40;;;6.64;64.36;95977.28;6131874;23;20554;-85
2022/02/09 03:45:50;;;;;;;1.40;1.30;;;7.30;79.10;;;6.43;65.27;95978.28;6130847;23;20197;-85
2022/02/09 03:48:25;;;;;;;1.45;1.35;;;7.30;79.10;;;6.48;65.22;95978.69;6130998;23;20260;-84
2022/02/09 03:53:50;;;;;;;2.15;1.35;;;7.30;79.10;;;6.50;65.46;95974.16;6131500;23;20362;-84
2022/02/09 03:56:27;;;;;;;3.17;1.55;;;7.30;79.30;;;6.46;65.71;95957.16;6106411;23;20300;-85
2022/02/09 03:58:55;;;;;;;1.70;1.60;;;7.30;79.30;;;6.53;65.27;95946.97;6107131;23;20177;-84
2022/02/09 04:01:26;;;;;;;1.70;1.60;;;7.30;79.30;;;6.65;65.22;95963.28;6131393;23;20197;-84
2022/02/09 04:03:53;;;;;;;1.67;1.50;;;7.40;79.40;;;6.66;65.38;95955.31;6129802;23;20243;-83
2022/02/09 04:06:22;;;;;;;1.77;1.67;;;7.40;79.40;;;6.68;65.58;95958.63;6106293;23;20255;-85
2022/02/09 04:08:57;;;;;;;1.90;1.80;;;7.50;79.50;;;6.70;65.13;95946.28;6130607;23;20174;-85
2022/02/09 04:12:04;;;;;;;2.17;1.50;;;7.40;79.40;;;6.75;65.15;95950.22;6106422;23;20177;-85
2022/02/09 04:14:30;;;;;;;3.13;2.10;;;7.50;79.40;;;6.81;64.99;95942.66;6107625;23;20197;-84
2022/02/09 04:19:44;;;;;;;3.03;2.30;;;7.50;79.40;;;6.83;65.33;95937.31;6130597;23;20201;-85
2022/02/09 04:36:15;;;;;;;2.85;2.25;;;7.70;79.30;;;6.97;64.80;95929.00;6110173;23;20719;-84
2022/02/09 04:39:06;;;;;;;3.60;2.50;;;7.80;79.30;;;6.98;64.74;95925.44;6106337;23;20181;-84
2022/02/09 04:54:44;;;;;;;3.38;2.50;;;7.70;79.10;;;7.06;64.70;95942.97;6130050;23;20197;-85
2022/02/09 04:57:49;;;;;;;3.00;2.22;;;7.80;79.20;;;7.08;64.68;95937.59;6084025;23;20212;-85
2022/02/09 05:03:28;;;;;;;2.60;2.40;;;7.80;79.10;;;7.08;64.82;95938.44;6130102;23;20177;-85
2022/02/09 05:20:15;;;;;;;3.58;3.22;;;7.90;79.10;;;7.08;64.28;95916.72;6109769;23;20194;-84
2022/02/09 05:22:35;;;;;;;2.63;2.20;;;7.90;79.00;;;7.15;64.58;95923.03;6129167;23;20176;-84
2022/02/09 05:27:51;;;;;;;2.90;2.70;;;7.90;79.00;;;7.19;64.47;95922.59;6155093;23;20220;-86
2022/02/09 05:30:19;;;;;;;3.03;2.60;;;7.90;79.00;;;7.20;64.37;95923.41;6129969;23;20197;-84
2022/02/09 05:32:47;;;;;;;3.83;2.88;;;7.90;78.90;;;7.25;64.20;95920.34;6129789;23;20178;-85
2022/02/09 05:35:16;;;;;;;3.55;2.60;;;7.90;78.90;;;7.19;64.38;95913.94;6129119;23;20193;-84
2022/02/09 05:37:43;;;;;;;3.38;2.90;;;8.00;79.00;;;7.28;64.25;95927.91;6130111;23;20176;-84
2022/02/09 05:40:11;;;;;;;2.75;2.50;;;7.90;78.80;;;7.20;64.34;95911.19;6129947;23;20201;-84
2022/02/09 05:42:39;;;;;;;3.08;2.40;;;7.90;78.90;;;7.24;64.26;95914.31;6106036;23;20180;-85
2022/02/09 05:45:09;;;;;;;3.88;2.80;;;7.90;78.90;;;7.30;64.35;95918.13;6129540;23;20204;-84
2022/02/09 05:53:09;;;;;;;3.10;2.80;;;8.00;78.80;;;7.29;64.22;95913.91;6129183;23;20192;-84
2022/02/09 05:55:51;;;;;;;3.15;2.80;;;8.00;78.90;;;7.26;64.09;95914.19;6104756;23;20276;-83
2022/02/09 05:58:34;;;;;;;5.25;3.20;;;8.00;78.70;;;7.28;64.37;95926.09;6104656;23;20166;-83
2022/02/09 06:01:04;;;;;;;3.72;2.95;;;8.00;78.90;;;7.31;64.18;95925.00;6129300;23;20255;-84
2022/02/09 06:03:31;;;;;;;3.97;2.75;;;8.00;78.70;;;7.31;64.41;95936.25;6129798;23;20169;-83
2022/02/09 06:05:59;;;;;;;4.00;2.72;;;8.10;78.90;;;7.29;64.21;95932.16;6129745;23;20193;-84
2022/02/09 06:08:26;;;;;;;3.38;3.08;;;8.10;78.80;;;7.32;64.20;95940.53;6105286;23;20252;-84
2022/02/09 06:11:09;;;;;;;5.45;3.42;;;8.10;78.90;;;7.33;64.08;95936.91;6129562;23;20193;-84
2022/02/09 06:13:56;;;;;;;3.47;2.75;;;8.00;78.80;;;7.29;63.94;95932.97;6083907;23;20169;-84
2022/02/09 06:21:57;;;;;;;2.72;2.47;;;8.10;78.70;;;7.37;64.37;95947.88;6128895;23;20166;-83
2022/02/09 06:24:24;;;;;;;4.45;3.10;;;8.00;79.50;;;7.37;64.28;95959.16;6105147;23;20244;-84
2022/02/09 06:26:51;;;;;;;3.10;2.42;;;8.10;78.80;;;7.37;63.82;95947.88;6129659;23;20232;-84
2022/02/09 06:29:23;;;;;;;5.07;2.78;;;8.10;78.80;;;7.36;64.05;95964.50;6106597;23;20644;-84
2022/02/09 06:31:51;;;;;;;2.85;2.60;;;8.10;78.90;;;7.35;63.70;95955.88;6130191;23;20601;-85
2022/02/09 06:34:21;;;;;;;2.30;2.10;;;8.10;78.70;;;7.37;64.00;95956.56;6104940;23;20193;-84
2022/02/09 06:36:57;;;;;;;2.60;2.17;;;8.10;78.60;;;7.34;63.84;95956.84;6105533;23;20604;-83
2022/02/09 06:39:25;;;;;;;2.47;2.15;;;8.10;78.60;;;7.39;63.52;95952.97;6104544;23;20201;-84
2022/02/09 06:41:53;;;;;;;5.20;2.33;;;8.00;78.50;;;7.37;63.80;95942.66;6105250;23;20273;-84
2022/02/09 06:44:21;;;;;;;2.35;1.95;;;8.10;78.70;;;7.35;63.83;95955.88;6105183;23;20228;-84
2022/02/09 06:46:48;;;;;;;3.45;2.03;;;8.10;78.60;;;7.37;63.64;95956.56;6080972;23;20216;-85
2022/02/09 06:49:17;;;;;;;2.97;2.10;;;8.10;78.50;;;7.36;63.45;95961.91;6104805;23;20205;-84
2022/02/09 06:51:46;;;;;;;1.80;1.70;;;8.10;78.50;;;7.37;63.30;95968.78;6105786;23;20208;-84
2022/02/09 06:54:22;;;;;;;1.70;1.60;;;8.10;78.50;;;7.34;63.53;95953.41;6106276;23;20189;-84
2022/02/09 06:59:28;;;;;;;1.95;1.85;;;8.10;78.50;;;7.29;63.17;95948.63;6128853;23;20197;-86
2022/02/09 07:02:04;;;;;;;1.80;1.70;;;8.10;78.20;;;7.37;63.18;95966.16;6106994;23;20181;-85
2022/02/09 07:04:36;;;;;;;1.75;1.65;;;8.10;78.20;;;7.36;62.95;95961.91;6082247;23;20204;-84
2022/02/09 07:07:06;;;;;;;1.65;1.48;;;8.10;78.10;;;7.37;62.83;95950.50;6105640;23;20201;-84
2022/02/09 07:09:34;;;;;;;2.03;1.30;;;8.10;78.20;;;7.39;63.00;95940.75;6153929;23;20193;-85
2022/02/09 07:12:02;;;;;;;3.03;1.50;;;8.10;78.20;;;7.42;62.95;95950.91;6105716;23;20174;-85
2022/02/09 07:14:30;;;;;;;3.38;1.60;;;8.10;78.10;;;7.40;61.92;95944.16;6081848;23;20190;-86
2022/02/09 07:16:57;;;;;;;2.67;1.60;;;8.10;77.80;;;7.39;62.51;95940.75;6107348;23;20174;-85
2022/02/09 07:19:27;;;;;;;1.60;1.50;;;8.10;77.90;;;7.42;62.28;95940.47;6106626;23;20205;-84
2022/02/09 07:21:54;;;;;;;1.60;1.50;;;8.10;77.70;;;7.44;62.15;95951.56;6106816;23;20181;-83
2022/02/09 07:24:23;;;;;;;2.38;1.63;;;8.10;77.80;;;7.44;62.37;95943.72;6106933;23;20644;-84
2022/02/09 07:27:12;;;;;;;1.88;1.40;;;8.20;78.00;;;7.50;61.61;95952.78;6106656;23;20201;-84
2022/02/09 07:29:37;;;;;;;1.67;1.55;;;8.20;77.70;;;7.51;61.67;95946.59;6130658;23;20201;-83
2022/02/09 07:32:05;;;;;;;1.50;1.40;;;8.20;77.50;;;7.54;62.38;95943.66;6106761;23;20184;-84
2022/02/09 07:34:33;;;;;;;1.60;1.50;;;8.20;77.70;;;7.61;62.43;95944.72;6082998;23;20204;-84
2022/02/09 07:37:00;;;;;;;1.50;1.30;;;8.20;77.70;;;7.67;62.40;95954.56;6105763;23;20197;-83
2022/02/09 07:39:27;;;;;;;1.40;1.30;;;8.30;77.90;;;7.68;61.68;95950.19;6081993;23;20202;-84
2022/02/09 07:41:56;;;;;;;2.05;1.60;;;8.30;77.70;;;7.74;62.15;95943.53;6129933;23;20244;-81
2022/02/09 07:44:45;;;;;;;2.60;1.50;;;8.30;77.70;;;7.76;62.43;95939.00;6083792;23;20531;-82
2022/02/09 07:47:37;;;;;;;1.55;1.45;;;8.40;77.80;;;7.80;61.96;95945.56;6106381;23;20201;-82
2022/02/09 07:50:17;;;;;;;2.03;1.55;;;8.40;77.70;;;7.80;61.02;95946.41;6128373;23;20247;-81
2022/02/09 07:53:08;;;;;;;2.22;1.42;;;8.40;77.40;;;7.78;61.09;95940.50;6108672;23;20232;-82
2022/02/09 07:55:37;;;;;;;1.88;1.45;;;8.40;77.40;;;7.85;61.66;95935.50;6129708;23;20198;-81
2022/02/09 07:58:04;;;;;;;1.50;1.40;;;8.40;77.30;;;7.85;60.90;95941.53;6129660;23;20208;-81
2022/02/09 08:00:32;;;;;;;1.50;1.40;;;8.50;77.30;;;7.90;61.54;95946.31;6130356;23;20259;-81
2022/02/09 08:03:00;;;;;;;2.03;1.30;;;8.50;77.20;;;7.95;61.86;95941.47;6129488;23;20200;-83
2022/02/09 08:05:27;;;;;;;1.63;1.45;;;8.50;77.40;;;8.00;61.61;95941.81;6129922;23;20259;-82
2022/02/09 08:07:54;;;;;;;1.30;1.20;;;8.60;77.40;;;8.04;61.78;95944.16;6154849;23;20537;-82
2022/02/09 08:10:28;;;;;;;1.40;1.30;;;8.60;77.50;;;8.09;61.80;95939.28;6081126;23;20204;-82
2022/02/09 08:34:11;;;;;;;1.48;1.30;;;8.90;76.90;;;8.42;60.27;95923.84;6131847;23;20223;-81
2022/02/09 08:36:39;;;;;;;1.83;1.40;;;9.00;76.60;;;8.44;60.40;95924.53;6129065;23;20173;-82
2022/02/09 08:39:07;;;;;;;1.45;1.30;;;9.00;76.60;;;8.49;60.75;95923.13;6129040;23;20217;-82
2022/02/09 08:41:35;;;;;;;1.30;1.20;;;9.00;76.70;;;8.53;60.39;95930.66;6128711;23;20209;-81
2022/02/09 08:44:03;;;;;;;2.03;1.55;;;9.10;76.70;;;8.60;60.63;95923.84;6104358;23;20231;-81
2022/02/09 08:46:30;;;;;;;1.55;1.40;;;9.10;76.70;;;8.67;60.36;95926.63;6129509;23;20177;-83
2022/02/09 08:48:58;;;;;;;2.15;1.65;;;9.20;76.60;;;8.62;60.11;95920.09;6105138;23;20256;-81
2022/02/09 08:51:27;;;;;;;1.65;1.50;;;9.20;76.50;;;8.68;59.61;95916.06;6105172;23;20212;-82
2022/02/09 08:53:55;;;;;;;1.70;1.60;;;9.20;76.20;;;8.70;59.36;95921.94;6104729;23;20178;-82
2022/02/09 08:56:26;;;;;;;1.75;1.52;;;9.20;76.00;;;8.76;59.93;95915.25;6105841;23;20189;-83
2022/02/09 08:58:53;;;;;;;1.40;1.30;;;9.20;76.10;;;8.85;60.38;95926.59;6104503;23;20177;-81
2022/02/09 09:01:33;;;;;;;1.70;1.60;;;9.30;76.50;;;8.90;59.73;95925.16;6129596;23;20182;-82
2022/02/09 09:04:11;;;;;;;1.60;1.50;;;9.30;76.40;;;9.01;59.51;95936.31;6128554;23;20200;-82
2022/02/09 09:06:41;;;;;;;2.20;1.52;;;9.40;76.20;;;9.06;58.93;95928.84;6083322;23;20185;-82
2022/02/09 10:02:55;;;;;;;1.65;1.55;;;10.40;73.90;;;10.33;55.78;95913.00;6133168;23;20161;-80
2022/02/09 10:34:26;;;;;;;2.65;2.13;;;10.80;71.00;;;10.06;54.02;95868.59;6107615;23;20193;-85
2022/02/09 10:37:05;;;;;;;2.80;2.30;;;10.90;71.00;;;10.15;54.87;95863.38;6104853;23;20169;-85
2022/02/09 10:39:59;;;;;;;2.60;2.28;;;10.80;71.50;;;10.16;53.51;95878.91;6105370;23;20203;-84
2022/02/09 10:42:46;;;;;;;3.33;2.28;;;10.70;71.20;;;10.19;53.78;95872.53;6128252;23;20489;-83
2022/02/09 10:45:48;;;;;;;2.88;2.40;;;10.70;71.10;;;10.27;54.72;95859.41;6104135;23;20247;-83
2022/02/09 10:48:37;;;;;;;3.33;1.95;;;10.70;71.40;;;10.31;54.24;95855.47;6109437;23;20659;-84
2022/02/09 10:51:44;;;;;;;2.05;1.85;;;10.70;71.50;;;10.41;54.58;95861.38;6107432;23;20197;-84
2022/02/09 10:54:19;;;;;;;2.83;2.45;;;10.70;71.70;;;10.49;54.86;95847.44;6086590;23;20225;-84
2022/02/09 10:56:54;;;;;;;2.50;2.25;;;10.70;71.80;;;10.54;53.16;95860.84;6131182;23;20181;-84
2022/02/09 10:59:27;;;;;;;3.42;2.20;;;10.80;71.30;;;10.55;52.96;95846.75;6106482;23;20196;-84
2022/02/09 11:02:01;;;;;;;3.17;2.10;;;10.80;71.00;;;10.51;52.62;95845.47;6106913;23;20177;-84
2022/02/09 11:04:29;;;;;;;3.10;2.38;;;10.90;70.50;;;10.43;51.97;95853.34;6130538;23;20256;-84
2022/02/09 11:06:57;;;;;;;3.03;2.20;;;11.00;70.10;;;10.35;52.54;95846.28;6082921;23;20204;-84
2022/02/09 11:09:29;;;;;;;3.40;2.25;;;10.80;70.20;;;10.30;52.14;95838.13;6131009;23;20213;-84
2022/02/09 11:11:56;;;;;;;2.50;2.15;;;10.80;69.70;;;10.31;53.26;95841.53;6106558;23;20165;-82
2022/02/09 11:14:25;;;;;;;2.70;2.40;;;10.80;70.30;;;10.26;53.00;95834.16;6154706;23;20193;-83
2022/02/09 11:16:59;;;;;;;5.32;4.03;;;10.80;70.20;;;10.30;52.78;95842.53;6131054;23;20177;-83
2022/02/09 11:19:35;;;;;;;6.38;4.13;;;10.80;70.20;;;10.30;52.73;95818.94;6130725;23;20192;-84
2022/02/09 11:22:23;;;;;;;3.13;2.20;;;10.80;70.10;;;10.31;53.37;95817.94;6106643;23;20161;-84
2022/02/09 11:25:14;;;;;;;5.18;3.72;;;10.80;70.40;;;10.35;53.75;95814.00;6130189;23;20653;-84
2022/02/09 11:27:50;;;;;;;2.45;2.20;;;10.80;70.50;;;10.39;53.55;95810.91;6082330;23;20644;-82
2022/02/09 11:30:41;;;;;;;3.58;2.70;;;10.90;70.70;;;10.48;53.56;95810.88;6130804;23;20205;-82
2022/02/09 11:39:43;;;;;;;2.92;2.55;;;10.90;70.80;;;10.68;53.41;95804.25;6118146;23;20196;-84
2022/02/09 11:46:27;;;;;;;6.22;4.93;;;11.10;71.00;;;10.95;54.03;95791.66;6130554;23;20192;-83
2022/02/09 12:00:51;;;;;;;3.22;2.33;;;11.60;70.10;;;11.48;53.10;95783.13;6129612;23;20200;-83
2022/02/09 12:09:41;;;;;;;2.60;2.38;;;12.00;70.50;;;11.97;51.64;95787.19;6130495;23;20236;-83
2022/02/09 12:12:19;;;;;;;2.53;2.25;;;12.10;70.10;;;12.12;52.10;95790.66;6105848;23;20175;-84
2022/02/09 12:25:47;;;;;;;3.00;2.10;;;12.70;69.60;;;12.96;51.46;95776.38;6107237;23;20296;-83
2022/02/09 12:28:16;;;;;;;2.55;2.15;;;12.90;69.70;;;13.05;51.24;95770.97;6154953;23;20180;-83
2022/02/09 12:30:45;;;;;;;2.72;2.15;;;13.10;69.90;;;13.13;49.40;95770.88;6105539;23;20196;-83
2022/02/09 12:33:24;;;;;;;3.80;2.13;;;13.10;68.90;;;13.19;50.64;95764.84;6105782;23;20183;-84
2022/02/09 12:40:03;;;;;;;2.47;2.10;;;13.40;69.30;;;13.48;50.48;95754.44;6129110;23;20663;-83
2022/02/09 12:42:46;;;;;;;2.70;1.98;;;13.60;69.30;;;13.57;49.89;95753.28;6129467;23;20686;-84
2022/02/09 12:45:16;;;;;;;2.95;1.95;;;13.70;68.30;;;13.74;48.89;95756.47;6106466;23;20189;-83
2022/02/09 12:47:48;;;;;;;2.40;1.92;;;13.70;68.70;;;13.89;49.46;95757.19;6105725;23;20732;-84
2022/02/09 12:50:34;;;;;;;2.20;2.00;;;13.90;68.40;;;14.04;48.08;95772.91;6105535;23;20192;-83
2022/02/09 12:53:03;;;;;;;2.58;1.90;;;14.00;67.70;;;14.12;48.24;95753.47;6154354;23;20161;-83
2022/02/09 12:55:37;;;;;;;2.20;1.85;;;14.20;67.70;;;14.25;48.76;95750.94;6130327;23;20192;-83
2022/02/09 12:58:11;;;;;;;2.40;1.98;;;14.30;67.90;;;14.40;48.29;95742.91;6105843;23;20219;-84
2022/02/09 13:00:44;;;;;;;2.22;1.52;;;14.30;67.50;;;14.55;47.87;95736.69;6081937;23;20647;-83
2022/02/09 13:03:20;;;;;;;1.95;1.65;;;14.50;67.10;;;14.71;48.17;95738.22;6128885;23;20608;-81
2022/02/09 13:05:51;;;;;;;2.13;1.63;;;14.70;67.20;;;14.78;47.05;95731.13;6129275;23;20576;-80
2022/02/09 13:08:21;;;;;;;3.13;1.80;;;14.80;66.70;;;14.95;47.56;95726.31;6129042;23;20204;-81
2022/02/09 13:10:49;;;;;;;3.08;1.77;;;14.90;66.90;;;15.11;47.54;95719.00;6129456;23;20427;-81
2022/02/09 13:13:30;;;;;;;3.67;1.90;;;15.10;67.10;;;15.30;45.44;95722.72;6104186;23;20199;-81
2022/02/09 13:16:23;;;;;;;4.78;2.05;;;15.30;65.90;;;15.40;44.96;95728.41;6128711;23;20251;-80
2022/02/09 13:19:45;;;;;;;2.35;1.83;;;15.50;66.00;;;15.54;46.94;95731.91;6105094;23;20181;-81
2022/02/09 14:07:07;;;;;;;5.47;2.58;;;18.20;62.10;;;17.19;41.53;95698.28;6127198;23;20208;-83
2022/02/09 14:53:22;;;;;;;2.78;2.10;;;17.70;60.20;;;15.98;42.99;95738.41;6126949;23;20169;-84
2022/02/09 14:58:25;;;;;;;2.45;1.90;;;17.70;60.60;;;15.72;43.09;95738.41;6153954;23;20154;-83
2022/02/09 15:01:11;;;;;;;4.47;2.83;;;17.40;60.20;;;15.48;43.13;95743.28;6103903;23;20228;-84
2022/02/09 15:08:53;;;;;;;6.88;4.35;;;16.50;59.40;;;14.14;42.76;95753.31;6128596;23;20227;-84
2022/02/09 15:11:33;;;;;;;7.88;5.55;;;16.10;59.70;;;13.65;43.82;95757.63;6108308;23;20224;-82
2022/02/09 15:14:15;;;;;;;6.25;4.70;;;15.60;60.00;;;13.21;44.69;95741.78;6104531;23;20176;-84
2022/02/09 15:19:25;;;;;;;5.07;3.30;;;14.70;60.50;;;12.48;45.24;95774.16;6128390;23;20280;-84
2022/02/09 15:22:05;;;;;;;4.78;3.63;;;14.30;60.80;;;12.14;45.55;95746.56;6107136;23;20199;-85
2022/02/09 15:24:46;;;;;;;7.18;3.50;;;13.90;61.10;;;11.82;46.17;95756.38;6103996;23;20197;-85
2022/02/09 15:27:21;;;;;;;5.38;3.20;;;13.50;61.40;;;11.50;46.62;95760.13;6106116;23;20177;-85
2022/02/09 15:29:50;;;;;;;4.82;3.08;;;13.20;61.80;;;11.29;47.01;95772.09;6105505;23;20212;-85
2022/02/09 15:32:25;;;;;;;4.75;3.00;;;12.80;62.10;;;11.03;47.11;95768.00;6129680;23;20546;-84
2022/02/09 15:34:57;;;;;;;4.38;3.13;;;12.60;62.40;;;10.90;47.61;95773.00;6105150;23;20279;-85
2022/02/09 15:40:06;;;;;;;2.50;2.00;;;12.10;63.00;;;10.60;48.40;95782.50;6131303;23;20247;-85
2022/02/09 15:42:56;;;;;;;3.28;2.38;;;11.90;63.20;;;10.46;48.22;95784.00;6106473;23;20207;-85
2022/02/09 15:59:16;;;;;;;3.85;2.55;;;10.80;64.00;;;9.41;49.33;95773.31;6129792;23;20173;-85
2022/02/09 16:10:33;;;;;;;6.78;3.35;;;10.20;64.50;;;8.88;51.52;95793.66;6130055;23;20237;-85
2022/02/09 16:23:42;;;;;;;4.45;2.60;;;9.60;66.40;;;8.31;51.03;95794.22;6130460;23;20174;-84
2022/02/09 16:45:08;;;;;;;6.20;4.00;;;8.80;67.80;;;7.62;51.77;95808.00;6129922;23;20201;-84
2022/02/09 16:47:52;;;;;;;4.55;3.40;;;8.80;67.10;;;7.54;51.39;95807.91;6106416;23;20204;-84
2022/02/09 16:50:26;;;;;;;5.90;3.60;;;8.70;67.10;;;7.44;52.24;95801.97;6108492;23;20209;-84
2022/02/09 16:53:01;;;;;;;6.50;3.85;;;8.60;67.30;;;7.40;52.46;95801.44;6083112;23;20248;-84
2022/02/09 17:20:00;;;;;;;3.75;2.47;;;7.90;68.40;;;6.70;53.72;95789.84;6128447;23;20201;-86
2022/02/09 17:22:27;;;;;;;3.63;2.53;;;7.80;68.50;;;6.68;53.61;95807.41;6103931;23;20180;-85
2022/02/09 17:24:54;;;;;;;3.13;2.45;;;7.80;68.50;;;6.62;54.13;95800.16;6104968;23;20433;-86
2022/02/09 17:27:21;;;;;;;3.55;2.35;;;7.70;68.60;;;6.61;53.79;95790.69;6129505;23;20173;-86
2022/02/09 17:35:30;;;;;;;4.35;3.03;;;7.60;68.80;;;6.36;54.94;95779.16;6099570;23;20198;-86
2022/02/09 17:57:02;;;;;;;7.10;3.25;;;7.20;69.60;;;6.12;55.35;95805.72;6153603;23;20181;-84
2022/02/09 17:59:31;;;;;;;4.25;2.70;;;7.20;69.70;;;6.12;55.41;95814.34;6127813;23;20691;-85
2022/02/09 18:01:59;;;;;;;4.50;3.00;;;7.20;69.80;;;6.09;54.94;95814.63;6105324;23;20208;-85
2022/02/09 18:04:26;;;;;;;3.85;3.10;;;7.10;70.60;;;6.04;55.03;95807.25;6105001;23;20221;-85
2022/02/09 18:07:04;;;;;;;2.97;2.70;;;7.20;69.80;;;6.00;55.33;95811.09;6129603;23;20240;-84
2022/02/09 18:09:35;;;;;;;4.43;2.88;;;7.10;69.80;;;5.93;55.09;95808.22;6130202;23;20197;-85
2022/02/09 18:31:42;;;;;;;5.15;3.30;;;6.70;69.80;;;5.44;55.40;95805.69;6129885;23;20179;-84
2022/02/09 19:05:57;;;;;;;4.68;3.50;;;5.90;70.00;;;4.71;55.22;95812.97;6129188;23;20206;-85
2022/02/09 19:17:00;;;;;;;4.32;3.30;;;5.80;70.40;;;4.56;55.59;95809.94;6131235;23;20177;-84
2022/02/09 19:40:51;;;;;;;6.05;4.25;;;5.50;71.40;;;4.43;56.84;95823.97;6155862;23;20193;-86
2022/02/09 19:48:39;;;;;;;5.88;3.47;;;5.50;71.50;;;4.40;56.54;95824.22;6107391;23;20181;-85
2022/02/09 19:51:33;;;;;;;5.63;4.13;;;5.50;71.40;;;4.43;56.59;95828.31;6110574;23;20248;-85
2022/02/09 19:54:11;;;;;;;4.93;3.53;;;5.50;71.50;;;4.42;56.57;95819.72;6131317;23;20169;-85
2022/02/09 19:56:47;;;;;;;4.50;3.40;;;5.50;71.60;;;4.43;56.69;95821.38;6109613;23;20244;-85
2022/02/09 19:59:19;;;;;;;5.35;3.53;;;5.50;71.70;;;4.43;56.44;95816.19;6130789;23;20201;-85
2022/02/09 20:01:47;;;;;;;5.90;3.97;;;5.50;71.60;;;4.43;56.89;95817.94;6108090;23;20217;-84
2022/02/09 20:04:18;;;;;;;5.68;3.92;;;5.40;71.70;;;4.42;56.83;95813.69;6131052;23;20185;-84
2022/02/09 20:06:46;;;;;;;7.25;3.97;;;5.50;71.80;;;4.46;56.96;95817.69;6107053;23;20271;-85
2022/02/09 20:09:13;;;;;;;5.75;3.35;;;5.50;71.80;;;4.40;57.24;95798.25;6104976;23;20197;-83
2022/02/09 20:11:44;;;;;;;5.57;3.75;;;5.50;71.90;;;4.47;57.29;95812.34;6130742;23;20201;-85
2022/02/09 20:14:12;;;;;;;6.45;4.18;;;5.50;72.10;;;4.49;57.12;95807.03;6106783;23;20220;-85
2022/02/09 20:16:40;;;;;;;5.05;3.80;;;5.50;72.20;;;4.48;57.20;95808.81;6106262;23;20174;-85
2022/02/09 20:19:08;;;;;;;5.22;3.60;;;5.50;72.20;;;4.48;57.10;95802.81;6130847;23;20208;-85
2022/02/09 20:21:35;;;;;;;4.78;3.67;;;5.50;72.10;;;4.46;57.43;95802.91;6129835;23;20177;-84
2022/02/09 20:24:04;;;;;;;6.18;3.85;;;5.50;72.20;;;4.44;57.47;95797.06;6107003;23;20169;-84
2022/02/09 20:26:32;;;;;;;6.40;4.20;;;5.50;72.30;;;4.46;57.69;95796.91;6106572;23;20208;-85
2022/02/09 20:29:08;;;;;;;6.05;3.97;;;5.60;72.70;;;4.48;57.77;95805.41;6105949;23;20399;-84
2022/02/09 20:31:45;;;;;;;6.28;3.70;;;5.50;72.70;;;4.44;57.33;95797.06;6106160;23;20662;-85
2022/02/09 20:34:29;;;;;;;5.40;3.58;;;5.50;72.60;;;4.44;57.44;95799.66;6104904;23;20197;-84
2022/02/09 20:36:57;;;;;;;5.07;3.45;;;5.50;72.50;;;4.40;57.39;95800.84;6110030;23;20204;-84
2022/02/09 20:39:30;;;;;;;4.53;3.40;;;5.60;72.50;;;4.39;57.64;95816.56;6130736;23;20518;-85
2022/02/09 20:41:58;;;;;;;4.72;3.53;;;5.50;72.40;;;4.38;57.94;95805.38;6130582;23;20201;-85
2022/02/09 20:46:55;;;;;;;5.75;4.43;;;5.40;72.70;;;4.40;58.56;95800.84;6130821;23;20177;-85
2022/02/09 20:49:22;;;;;;;8.38;4.55;;;5.40;72.70;;;4.42;58.95;95805.91;6106479;23;20288;-85
2022/02/09 20:51:49;;;;;;;5.90;4.53;;;5.40;72.70;;;4.43;59.38;95803.19;6130928;23;20632;-85
2022/02/09 20:54:16;;;;;;;5.88;4.55;;;5.40;72.70;;;4.47;59.36;95799.38;6106105;23;20193;-85
2022/02/09 20:56:44;;;;;;;5.10;4.22;;;5.50;72.90;;;4.51;59.38;95793.91;6130643;23;20182;-85
2022/02/09 20:59:14;;;;;;;7.60;4.53;;;5.50;73.10;;;4.54;59.12;95785.84;6129527;23;20205;-83
2022/02/09 21:01:52;;;;;;;5.45;4.18;;;5.50;73.00;;;4.54;59.11;95784.09;6129546;23;20181;-84
2022/02/09 21:04:25;;;;;;;6.40;4.20;;;5.50;72.90;;;4.54;59.04;95772.84;6084077;23;20639;-84
2022/02/09 21:09:54;;;;;;;5.40;4.00;;;5.50;72.70;;;4.47;58.57;95765.59;6132908;23;20678;-84
2022/02/09 21:12:34;;;;;;;6.95;4.20;;;5.50;72.80;;;4.45;59.01;95758.91;6108063;23;20216;-84
2022/02/09 21:15:35;;;;;;;5.70;3.90;;;5.50;72.70;;;4.44;58.95;95758.09;6106053;23;20706;-84
2022/02/09 21:23:43;;;;;;;7.03;4.45;;;5.60;73.10;;;4.44;60.28;95758.09;6135383;23;20177;-84
2022/02/09 21:26:39;;;;;;;6.47;4.50;;;5.50;73.50;;;4.44;59.86;95754.66;6110139;23;20201;-85
2022/02/09 22:21:07;;;;;;;5.75;4.18;;;5.60;74.30;;;4.47;60.38;95736.22;6129768;23;20569;-85
2022/02/09 22:32:03;;;;;;;7.03;3.78;;;5.50;73.90;;;4.32;59.82;95731.38;6090848;23;20201;-85
2022/02/09 22:46:56;;;;;;;7.05;4.03;;;5.30;73.80;;;4.07;59.85;95729.25;6116470;23;20659;-84
2022/02/09 22:49:02;;;;;;;4.65;3.83;;;5.20;73.60;;;3.98;59.53;95731.69;6114995;23;20612;-85
2022/02/09 22:56:42;;;;;;;6.05;4.32;;;5.00;73.40;;;3.71;59.46;95731.41;6156899;23;20177;-85
2022/02/09 22:59:17;;;;;;;8.85;4.10;;;5.00;73.10;;;3.68;59.31;95740.28;6107924;23;20196;-86
2022/02/09 23:01:55;;;;;;;3.92;3.45;;;4.90;73.20;;;3.55;59.37;95719.72;6108702;23;20177;-85
2022/02/09 23:04:59;;;;;;;4.18;3.42;;;4.80;73.20;;;3.56;59.15;95730.94;6109781;23;20204;-85
2022/02/09 23:07:26;;;;;;;5.20;4.03;;;4.80;73.20;;;3.41;59.00;95713.09;6110901;23;20185;-85
2022/02/09 23:13:09;;;;;;;5.38;3.67;;;4.60;72.90;;;3.28;58.82;95718.47;6079401;23;20613;-85
2022/02/09 23:15:44;;;;;;;6.05;3.72;;;4.60;73.20;;;3.15;59.02;95705.72;6110069;23;20189;-85
